sensor_id;sensor_type;location;lat;lon;timestamp;temperature;humidity
71839;SHT31;59687;37.520;15.068;2022-10-16T00:00:45;17.77;81.44
71839;SHT31;59687;37.520;15.068;2022-10-16T00:03:12;17.72;81.44
71839;SHT31;59687;37.520;15.068;2022-10-16T00:05:43;17.70;81.37
71839;SHT31;59687;37.520;15.068;2022-10-16T00:08:13;17.65;81.44
71839;SHT31;59687;37.520;15.068;2022-10-16T00:10:40;17.63;81.39
71839;SHT31;59687;37.520;15.068;2022-10-16T00:13:07;17.63;81.43
71839;SHT31;59687;37.520;15.068;2022-10-16T00:15:36;17.63;81.41
71839;SHT31;59687;37.520;15.068;2022-10-16T00:18:03;17.61;81.42
71839;SHT31;59687;37.520;15.068;2022-10-16T00:20:33;17.60;81.26
71839;SHT31;59687;37.520;15.068;2022-10-16T00:23:01;17.57;81.35
71839;SHT31;59687;37.520;15.068;2022-10-16T00:25:27;17.55;81.53
71839;SHT31;59687;37.520;15.068;2022-10-16T00:27:54;17.54;81.37
71839;SHT31;59687;37.520;15.068;2022-10-16T00:30:21;17.53;81.44
71839;SHT31;59687;37.520;15.068;2022-10-16T00:32:49;17.50;81.49
71839;SHT31;59687;37.520;15.068;2022-10-16T00:35:16;17.47;81.62
71839;SHT31;59687;37.520;15.068;2022-10-16T00:37:43;17.48;81.67
71839;SHT31;59687;37.520;15.068;2022-10-16T00:40:10;17.46;81.72
71839;SHT31;59687;37.520;15.068;2022-10-16T00:42:38;17.44;81.88
71839;SHT31;59687;37.520;15.068;2022-10-16T00:45:06;17.46;82.00
71839;SHT31;59687;37.520;15.068;2022-10-16T00:47:44;17.46;81.93
71839;SHT31;59687;37.520;15.068;2022-10-16T00:50:32;17.43;81.89
71839;SHT31;59687;37.520;15.068;2022-10-16T00:53:01;17.41;81.92
71839;SHT31;59687;37.520;15.068;2022-10-16T00:55:28;17.41;82.05
71839;SHT31;59687;37.520;15.068;2022-10-16T00:57:57;17.44;82.07
71839;SHT31;59687;37.520;15.068;2022-10-16T01:00:26;17.41;82.09
71839;SHT31;59687;37.520;15.068;2022-10-16T01:03:00;17.43;82.06
71839;SHT31;59687;37.520;15.068;2022-10-16T01:05:34;17.41;81.83
71839;SHT31;59687;37.520;15.068;2022-10-16T01:08:13;17.41;82.00
71839;SHT31;59687;37.520;15.068;2022-10-16T01:10:52;17.38;81.85
71839;SHT31;59687;37.520;15.068;2022-10-16T01:13:25;17.50;81.70
71839;SHT31;59687;37.520;15.068;2022-10-16T01:16:34;17.44;81.48
71839;SHT31;59687;37.520;15.068;2022-10-16T01:19:50;17.38;81.52
71839;SHT31;59687;37.520;15.068;2022-10-16T01:22:09;17.37;81.77
71839;SHT31;59687;37.520;15.068;2022-10-16T01:24:56;17.30;81.66
71839;SHT31;59687;37.520;15.068;2022-10-16T01:27:28;17.27;81.80
71839;SHT31;59687;37.520;15.068;2022-10-16T01:30:17;17.23;81.87
71839;SHT31;59687;37.520;15.068;2022-10-16T01:33:05;17.20;81.91
71839;SHT31;59687;37.520;15.068;2022-10-16T01:35:47;17.18;81.97
71839;SHT31;59687;37.520;15.068;2022-10-16T01:38:35;17.15;81.97
71839;SHT31;59687;37.520;15.068;2022-10-16T01:41:12;17.10;82.02
71839;SHT31;59687;37.520;15.068;2022-10-16T01:43:53;17.12;81.93
71839;SHT31;59687;37.520;15.068;2022-10-16T01:46:23;17.09;81.83
71839;SHT31;59687;37.520;15.068;2022-10-16T01:48:51;17.06;81.82
71839;SHT31;59687;37.520;15.068;2022-10-16T01:51:19;17.02;81.80
71839;SHT31;59687;37.520;15.068;2022-10-16T01:53:52;17.05;81.69
71839;SHT31;59687;37.520;15.068;2022-10-16T01:56:20;17.06;81.69
71839;SHT31;59687;37.520;15.068;2022-10-16T01:59:16;17.19;81.53
71839;SHT31;59687;37.520;15.068;2022-10-16T02:01:46;17.19;81.16
71839;SHT31;59687;37.520;15.068;2022-10-16T02:04:23;17.22;80.77
71839;SHT31;59687;37.520;15.068;2022-10-16T02:06:52;17.18;80.54
71839;SHT31;59687;37.520;15.068;2022-10-16T02:09:19;17.16;80.77
71839;SHT31;59687;37.520;15.068;2022-10-16T02:11:47;17.15;80.70
71839;SHT31;59687;37.520;15.068;2022-10-16T02:14:16;17.12;80.77
71839;SHT31;59687;37.520;15.068;2022-10-16T02:16:45;17.08;80.89
71839;SHT31;59687;37.520;15.068;2022-10-16T02:19:15;17.02;81.31
71839;SHT31;59687;37.520;15.068;2022-10-16T02:27:44;16.89;81.65
71839;SHT31;59687;37.520;15.068;2022-10-16T02:33:10;16.82;81.75
71839;SHT31;59687;37.520;15.068;2022-10-16T02:35:38;16.78;81.76
71839;SHT31;59687;37.520;15.068;2022-10-16T02:38:08;16.75;81.80
71839;SHT31;59687;37.520;15.068;2022-10-16T02:40:41;16.71;81.94
71839;SHT31;59687;37.520;15.068;2022-10-16T02:43:10;16.69;82.04
71839;SHT31;59687;37.520;15.068;2022-10-16T02:45:38;16.68;82.05
71839;SHT31;59687;37.520;15.068;2022-10-16T02:48:06;16.74;82.15
71839;SHT31;59687;37.520;15.068;2022-10-16T02:50:34;16.67;82.14
71839;SHT31;59687;37.520;15.068;2022-10-16T02:53:01;16.67;82.28
71839;SHT31;59687;37.520;15.068;2022-10-16T02:55:28;16.65;82.33
71839;SHT31;59687;37.520;15.068;2022-10-16T02:57:55;16.61;82.40
71839;SHT31;59687;37.520;15.068;2022-10-16T03:00:24;16.57;82.52
71839;SHT31;59687;37.520;15.068;2022-10-16T03:02:51;16.56;82.59
71839;SHT31;59687;37.520;15.068;2022-10-16T03:05:19;16.56;82.75
71839;SHT31;59687;37.520;15.068;2022-10-16T03:07:51;16.51;82.80
71839;SHT31;59687;37.520;15.068;2022-10-16T03:10:20;16.54;82.80
71839;SHT31;59687;37.520;15.068;2022-10-16T03:12:47;16.53;82.91
71839;SHT31;59687;37.520;15.068;2022-10-16T03:15:15;16.58;82.95
71839;SHT31;59687;37.520;15.068;2022-10-16T03:17:42;16.69;82.44
71839;SHT31;59687;37.520;15.068;2022-10-16T03:20:11;16.81;82.15
71839;SHT31;59687;37.520;15.068;2022-10-16T03:22:38;16.77;82.00
71839;SHT31;59687;37.520;15.068;2022-10-16T03:25:05;16.68;82.05
71839;SHT31;59687;37.520;15.068;2022-10-16T03:27:33;16.63;82.36
71839;SHT31;59687;37.520;15.068;2022-10-16T03:30:03;16.60;82.60
71839;SHT31;59687;37.520;15.068;2022-10-16T03:32:30;16.54;82.82
71839;SHT31;59687;37.520;15.068;2022-10-16T03:35:00;16.53;82.91
71839;SHT31;59687;37.520;15.068;2022-10-16T03:37:28;16.47;82.89
71839;SHT31;59687;37.520;15.068;2022-10-16T03:39:55;16.44;83.02
71839;SHT31;59687;37.520;15.068;2022-10-16T03:42:23;16.43;83.15
71839;SHT31;59687;37.520;15.068;2022-10-16T03:44:50;16.34;83.16
71839;SHT31;59687;37.520;15.068;2022-10-16T03:47:17;16.36;83.25
71839;SHT31;59687;37.520;15.068;2022-10-16T03:49:49;16.32;83.25
71839;SHT31;59687;37.520;15.068;2022-10-16T03:52:17;16.27;83.23
71839;SHT31;59687;37.520;15.068;2022-10-16T03:54:50;16.23;83.38
71839;SHT31;59687;37.520;15.068;2022-10-16T03:57:18;16.19;83.48
71839;SHT31;59687;37.520;15.068;2022-10-16T03:59:45;16.24;83.62
71839;SHT31;59687;37.520;15.068;2022-10-16T04:02:12;16.23;83.56
71839;SHT31;59687;37.520;15.068;2022-10-16T04:04:39;16.22;83.69
71839;SHT31;59687;37.520;15.068;2022-10-16T04:07:07;16.20;83.62
71839;SHT31;59687;37.520;15.068;2022-10-16T04:09:34;16.20;83.58
71839;SHT31;59687;37.520;15.068;2022-10-16T04:12:02;16.22;83.51
71839;SHT31;59687;37.520;15.068;2022-10-16T04:14:30;16.22;83.53
71839;SHT31;59687;37.520;15.068;2022-10-16T04:16:58;16.23;83.54
71839;SHT31;59687;37.520;15.068;2022-10-16T04:19:26;16.23;83.46
71839;SHT31;59687;37.520;15.068;2022-10-16T04:21:53;16.22;83.39
71839;SHT31;59687;37.520;15.068;2022-10-16T04:24:21;16.19;83.36
71839;SHT31;59687;37.520;15.068;2022-10-16T04:26:48;16.17;83.39
71839;SHT31;59687;37.520;15.068;2022-10-16T04:29:15;16.15;83.47
71839;SHT31;59687;37.520;15.068;2022-10-16T04:31:43;16.13;83.51
71839;SHT31;59687;37.520;15.068;2022-10-16T04:34:09;16.16;83.66
71839;SHT31;59687;37.520;15.068;2022-10-16T04:36:37;16.12;83.68
71839;SHT31;59687;37.520;15.068;2022-10-16T04:39:06;16.13;83.72
71839;SHT31;59687;37.520;15.068;2022-10-16T04:41:33;16.10;83.81
71839;SHT31;59687;37.520;15.068;2022-10-16T04:43:59;16.09;83.88
71839;SHT31;59687;37.520;15.068;2022-10-16T04:46:26;16.10;83.86
71839;SHT31;59687;37.520;15.068;2022-10-16T04:48:53;16.09;83.83
71839;SHT31;59687;37.520;15.068;2022-10-16T04:51:20;16.05;83.86
71839;SHT31;59687;37.520;15.068;2022-10-16T04:53:47;16.04;83.92
71839;SHT31;59687;37.520;15.068;2022-10-16T04:56:14;16.04;84.01
71839;SHT31;59687;37.520;15.068;2022-10-16T04:58:42;16.01;84.04
71839;SHT31;59687;37.520;15.068;2022-10-16T05:01:09;16.02;84.08
71839;SHT31;59687;37.520;15.068;2022-10-16T05:03:36;16.01;84.14
71839;SHT31;59687;37.520;15.068;2022-10-16T05:06:05;16.01;84.07
71839;SHT31;59687;37.520;15.068;2022-10-16T05:08:33;16.04;84.11
71839;SHT31;59687;37.520;15.068;2022-10-16T05:10:59;16.04;83.97
71839;SHT31;59687;37.520;15.068;2022-10-16T05:13:28;16.08;83.89
71839;SHT31;59687;37.520;15.068;2022-10-16T05:15:56;16.09;83.81
71839;SHT31;59687;37.520;15.068;2022-10-16T05:18:23;16.20;83.88
71839;SHT31;59687;37.520;15.068;2022-10-16T05:20:50;16.32;83.81
71839;SHT31;59687;37.520;15.068;2022-10-16T05:23:19;16.53;83.42
71839;SHT31;59687;37.520;15.068;2022-10-16T05:25:59;16.78;82.73
71839;SHT31;59687;37.520;15.068;2022-10-16T05:28:29;17.13;82.39
71839;SHT31;59687;37.520;15.068;2022-10-16T05:30:57;17.46;80.79
71839;SHT31;59687;37.520;15.068;2022-10-16T05:33:26;17.85;78.95
71839;SHT31;59687;37.520;15.068;2022-10-16T05:35:53;18.23;77.55
71839;SHT31;59687;37.520;15.068;2022-10-16T05:38:22;18.72;76.07
71839;SHT31;59687;37.520;15.068;2022-10-16T05:40:53;19.21;74.66
71839;SHT31;59687;37.520;15.068;2022-10-16T05:43:21;19.69;72.83
71839;SHT31;59687;37.520;15.068;2022-10-16T05:45:59;20.17;71.13
71839;SHT31;59687;37.520;15.068;2022-10-16T05:48:26;20.68;69.70
71839;SHT31;59687;37.520;15.068;2022-10-16T05:51:05;21.17;67.74
71839;SHT31;59687;37.520;15.068;2022-10-16T05:53:37;21.59;66.44
71839;SHT31;59687;37.520;15.068;2022-10-16T05:56:06;22.16;65.03
71839;SHT31;59687;37.520;15.068;2022-10-16T05:58:37;22.61;63.07
71839;SHT31;59687;37.520;15.068;2022-10-16T06:01:12;23.08;62.05
71839;SHT31;59687;37.520;15.068;2022-10-16T06:03:39;23.65;60.56
71839;SHT31;59687;37.520;15.068;2022-10-16T06:06:15;24.13;58.95
71839;SHT31;59687;37.520;15.068;2022-10-16T06:08:44;24.66;57.51
71839;SHT31;59687;37.520;15.068;2022-10-16T06:11:20;25.17;56.35
71839;SHT31;59687;37.520;15.068;2022-10-16T06:13:55;25.67;54.64
71839;SHT31;59687;37.520;15.068;2022-10-16T06:16:26;26.05;53.64
71839;SHT31;59687;37.520;15.068;2022-10-16T06:18:55;26.49;52.25
71839;SHT31;59687;37.520;15.068;2022-10-16T06:21:27;26.93;51.52
71839;SHT31;59687;37.520;15.068;2022-10-16T06:23:56;27.20;50.85
71839;SHT31;59687;37.520;15.068;2022-10-16T06:26:28;27.50;50.42
71839;SHT31;59687;37.520;15.068;2022-10-16T06:28:57;27.80;49.51
71839;SHT31;59687;37.520;15.068;2022-10-16T06:31:25;28.15;48.71
71839;SHT31;59687;37.520;15.068;2022-10-16T06:33:56;28.62;47.80
71839;SHT31;59687;37.520;15.068;2022-10-16T06:36:26;29.06;46.95
71839;SHT31;59687;37.520;15.068;2022-10-16T06:38:55;29.41;46.42
71839;SHT31;59687;37.520;15.068;2022-10-16T06:41:23;29.74;45.73
71839;SHT31;59687;37.520;15.068;2022-10-16T06:43:51;30.19;44.68
71839;SHT31;59687;37.520;15.068;2022-10-16T06:46:21;30.49;43.79
71839;SHT31;59687;37.520;15.068;2022-10-16T06:48:49;30.56;43.30
71839;SHT31;59687;37.520;15.068;2022-10-16T06:51:19;30.63;43.56
71839;SHT31;59687;37.520;15.068;2022-10-16T06:53:49;30.74;43.00
71839;SHT31;59687;37.520;15.068;2022-10-16T06:56:32;31.01;42.17
71839;SHT31;59687;37.520;15.068;2022-10-16T06:59:01;30.99;42.10
71839;SHT31;59687;37.520;15.068;2022-10-16T07:01:32;31.12;41.83
71839;SHT31;59687;37.520;15.068;2022-10-16T07:04:00;31.47;41.71
71839;SHT31;59687;37.520;15.068;2022-10-16T07:06:31;31.41;42.02
71839;SHT31;59687;37.520;15.068;2022-10-16T07:09:04;31.41;41.75
71839;SHT31;59687;37.520;15.068;2022-10-16T07:11:35;31.25;41.86
71839;SHT31;59687;37.520;15.068;2022-10-16T07:14:03;30.79;43.84
71839;SHT31;59687;37.520;15.068;2022-10-16T07:16:32;31.19;42.37
71839;SHT31;59687;37.520;15.068;2022-10-16T07:19:02;31.47;42.07
71839;SHT31;59687;37.520;15.068;2022-10-16T07:21:32;31.33;40.92
71839;SHT31;59687;37.520;15.068;2022-10-16T07:24:04;31.02;41.57
71839;SHT31;59687;37.520;15.068;2022-10-16T07:26:35;31.14;42.34
71839;SHT31;59687;37.520;15.068;2022-10-16T07:29:02;31.22;42.08
71839;SHT31;59687;37.520;15.068;2022-10-16T07:31:30;31.21;41.53
71839;SHT31;59687;37.520;15.068;2022-10-16T07:33:58;31.04;42.37
71839;SHT31;59687;37.520;15.068;2022-10-16T07:36:28;30.98;42.59
71839;SHT31;59687;37.520;15.068;2022-10-16T07:38:56;31.21;41.74
71839;SHT31;59687;37.520;15.068;2022-10-16T07:41:24;31.10;41.97
71839;SHT31;59687;37.520;15.068;2022-10-16T07:43:55;30.53;43.80
71839;SHT31;59687;37.520;15.068;2022-10-16T07:46:29;30.27;44.42
71839;SHT31;59687;37.520;15.068;2022-10-16T07:48:56;30.10;45.22
71839;SHT31;59687;37.520;15.068;2022-10-16T07:51:25;30.28;44.95
71839;SHT31;59687;37.520;15.068;2022-10-16T07:53:54;30.05;45.10
71839;SHT31;59687;37.520;15.068;2022-10-16T07:56:21;30.40;45.11
71839;SHT31;59687;37.520;15.068;2022-10-16T07:58:49;30.63;45.41
71839;SHT31;59687;37.520;15.068;2022-10-16T08:01:18;30.57;44.28
71839;SHT31;59687;37.520;15.068;2022-10-16T08:03:48;30.47;45.05
71839;SHT31;59687;37.520;15.068;2022-10-16T08:06:17;30.91;43.35
71839;SHT31;59687;37.520;15.068;2022-10-16T08:08:44;31.26;42.53
71839;SHT31;59687;37.520;15.068;2022-10-16T08:11:11;31.16;43.34
71839;SHT31;59687;37.520;15.068;2022-10-16T08:13:41;31.46;43.62
71839;SHT31;59687;37.520;15.068;2022-10-16T08:16:08;31.47;42.88
71839;SHT31;59687;37.520;15.068;2022-10-16T08:18:41;30.80;43.74
71839;SHT31;59687;37.520;15.068;2022-10-16T08:21:15;30.97;43.63
71839;SHT31;59687;37.520;15.068;2022-10-16T08:23:44;30.35;45.06
71839;SHT31;59687;37.520;15.068;2022-10-16T08:26:12;30.49;44.34
71839;SHT31;59687;37.520;15.068;2022-10-16T08:28:39;30.33;44.61
71839;SHT31;59687;37.520;15.068;2022-10-16T08:31:10;30.12;45.44
71839;SHT31;59687;37.520;15.068;2022-10-16T08:33:42;30.28;44.67
71839;SHT31;59687;37.520;15.068;2022-10-16T08:36:10;30.46;44.59
71839;SHT31;59687;37.520;15.068;2022-10-16T08:38:38;31.11;42.83
71839;SHT31;59687;37.520;15.068;2022-10-16T08:47:20;31.35;41.45
71839;SHT31;59687;37.520;15.068;2022-10-16T08:50:09;31.04;41.90
71839;SHT31;59687;37.520;15.068;2022-10-16T08:52:39;32.07;40.39
71839;SHT31;59687;37.520;15.068;2022-10-16T08:58:00;32.53;38.88
71839;SHT31;59687;37.520;15.068;2022-10-16T09:00:29;32.92;38.35
71839;SHT31;59687;37.520;15.068;2022-10-16T09:06:21;32.70;37.84
71839;SHT31;59687;37.520;15.068;2022-10-16T09:09:32;33.76;36.32
71839;SHT31;59687;37.520;15.068;2022-10-16T09:17:22;32.32;38.90
71839;SHT31;59687;37.520;15.068;2022-10-16T09:22:31;32.22;38.93
71839;SHT31;59687;37.520;15.068;2022-10-16T09:25:13;32.15;39.48
71839;SHT31;59687;37.520;15.068;2022-10-16T09:27:44;30.98;40.83
71839;SHT31;59687;37.520;15.068;2022-10-16T09:30:15;30.45;42.21
71839;SHT31;59687;37.520;15.068;2022-10-16T09:32:44;30.74;40.98
71839;SHT31;59687;37.520;15.068;2022-10-16T09:35:19;31.07;40.88
71839;SHT31;59687;37.520;15.068;2022-10-16T09:37:49;31.70;39.37
71839;SHT31;59687;37.520;15.068;2022-10-16T09:40:32;32.42;38.29
71839;SHT31;59687;37.520;15.068;2022-10-16T09:48:37;33.83;35.62
71839;SHT31;59687;37.520;15.068;2022-10-16T09:51:25;34.34;34.98
71839;SHT31;59687;37.520;15.068;2022-10-16T09:54:02;35.39;33.02
71839;SHT31;59687;37.520;15.068;2022-10-16T09:56:44;35.77;32.32
71839;SHT31;59687;37.520;15.068;2022-10-16T09:59:20;37.90;29.73
71839;SHT31;59687;37.520;15.068;2022-10-16T10:01:50;36.70;29.97
71839;SHT31;59687;37.520;15.068;2022-10-16T10:04:23;38.00;29.65
71839;SHT31;59687;37.520;15.068;2022-10-16T10:06:52;39.37;28.49
71839;SHT31;59687;37.520;15.068;2022-10-16T10:09:27;39.80;27.55
71839;SHT31;59687;37.520;15.068;2022-10-16T10:12:00;41.02;25.95
71839;SHT31;59687;37.520;15.068;2022-10-16T10:19:50;41.02;25.90
71839;SHT31;59687;37.520;15.068;2022-10-16T10:25:15;36.79;32.41
71839;SHT31;59687;37.520;15.068;2022-10-16T10:31:12;37.15;31.75
71839;SHT31;59687;37.520;15.068;2022-10-16T10:36:40;38.44;30.23
71839;SHT31;59687;37.520;15.068;2022-10-16T10:39:32;38.82;29.64
71839;SHT31;59687;37.520;15.068;2022-10-16T11:01:12;38.72;29.43
71839;SHT31;59687;37.520;15.068;2022-10-16T11:04:17;38.18;29.89
71839;SHT31;59687;37.520;15.068;2022-10-16T11:06:55;39.09;29.46
71839;SHT31;59687;37.520;15.068;2022-10-16T11:09:44;38.97;29.90
71839;SHT31;59687;37.520;15.068;2022-10-16T11:12:20;40.06;28.85
71839;SHT31;59687;37.520;15.068;2022-10-16T11:15:13;39.63;28.86
71839;SHT31;59687;37.520;15.068;2022-10-16T11:20:50;37.31;31.72
71839;SHT31;59687;37.520;15.068;2022-10-16T11:23:24;38.86;29.25
71839;SHT31;59687;37.520;15.068;2022-10-16T11:25:57;38.70;29.63
71839;SHT31;59687;37.520;15.068;2022-10-16T11:34:02;38.49;30.24
71839;SHT31;59687;37.520;15.068;2022-10-16T11:39:29;37.37;29.84
71839;SHT31;59687;37.520;15.068;2022-10-16T11:42:05;37.28;31.67
71839;SHT31;59687;37.520;15.068;2022-10-16T11:47:30;39.21;28.30
71839;SHT31;59687;37.520;15.068;2022-10-16T11:55:48;40.31;27.41
71839;SHT31;59687;37.520;15.068;2022-10-16T12:03:39;36.51;32.20
71839;SHT31;59687;37.520;15.068;2022-10-16T12:06:31;36.93;31.27
71839;SHT31;59687;37.520;15.068;2022-10-16T12:09:01;37.72;31.00
71839;SHT31;59687;37.520;15.068;2022-10-16T12:14:21;39.28;29.08
71839;SHT31;59687;37.520;15.068;2022-10-16T12:17:00;39.85;27.93
71839;SHT31;59687;37.520;15.068;2022-10-16T12:19:57;38.34;30.45
71839;SHT31;59687;37.520;15.068;2022-10-16T12:22:28;37.79;32.01
71839;SHT31;59687;37.520;15.068;2022-10-16T12:24:57;37.04;32.85
71839;SHT31;59687;37.520;15.068;2022-10-16T12:27:29;36.91;32.65
71839;SHT31;59687;37.520;15.068;2022-10-16T12:29:59;35.74;34.41
71839;SHT31;59687;37.520;15.068;2022-10-16T12:32:33;35.58;34.70
71839;SHT31;59687;37.520;15.068;2022-10-16T12:35:28;35.13;36.04
71839;SHT31;59687;37.520;15.068;2022-10-16T12:38:08;35.74;34.60
71839;SHT31;59687;37.520;15.068;2022-10-16T12:41:03;35.28;33.06
71839;SHT31;59687;37.520;15.068;2022-10-16T12:43:42;35.97;33.07
71839;SHT31;59687;37.520;15.068;2022-10-16T12:48:38;36.49;33.00
71839;SHT31;59687;37.520;15.068;2022-10-16T12:51:35;37.43;31.35
71839;SHT31;59687;37.520;15.068;2022-10-16T12:54:18;37.77;30.14
71839;SHT31;59687;37.520;15.068;2022-10-16T12:57:42;38.21;30.58
71839;SHT31;59687;37.520;15.068;2022-10-16T13:00:35;37.58;30.17
71839;SHT31;59687;37.520;15.068;2022-10-16T13:03:33;36.97;31.57
71839;SHT31;59687;37.520;15.068;2022-10-16T13:06:08;37.55;31.02
71839;SHT31;59687;37.520;15.068;2022-10-16T13:11:47;35.17;32.78
71839;SHT31;59687;37.520;15.068;2022-10-16T13:15:07;33.42;36.01
71839;SHT31;59687;37.520;15.068;2022-10-16T13:23:25;32.72;37.11
71839;SHT31;59687;37.520;15.068;2022-10-16T13:26:18;32.28;38.93
71839;SHT31;59687;37.520;15.068;2022-10-16T13:28:50;31.41;40.47
71839;SHT31;59687;37.520;15.068;2022-10-16T13:31:22;31.35;38.79
71839;SHT31;59687;37.520;15.068;2022-10-16T13:33:54;31.12;39.42
71839;SHT31;59687;37.520;15.068;2022-10-16T13:45:02;29.63;44.65
71839;SHT31;59687;37.520;15.068;2022-10-16T13:47:30;29.74;45.22
71839;SHT31;59687;37.520;15.068;2022-10-16T13:50:03;29.91;43.81
71839;SHT31;59687;37.520;15.068;2022-10-16T13:52:31;29.48;44.47
71839;SHT31;59687;37.520;15.068;2022-10-16T13:54:59;29.22;44.95
71839;SHT31;59687;37.520;15.068;2022-10-16T13:57:26;28.98;44.52
71839;SHT31;59687;37.520;15.068;2022-10-16T13:59:53;28.62;45.71
71839;SHT31;59687;37.520;15.068;2022-10-16T14:04:53;29.28;41.21
71839;SHT31;59687;37.520;15.068;2022-10-16T14:07:33;28.57;43.63
71839;SHT31;59687;37.520;15.068;2022-10-16T14:10:04;27.76;46.51
71839;SHT31;59687;37.520;15.068;2022-10-16T14:12:32;27.03;48.92
71839;SHT31;59687;37.520;15.068;2022-10-16T14:14:59;26.51;50.95
71839;SHT31;59687;37.520;15.068;2022-10-16T14:17:30;26.13;50.92
71839;SHT31;59687;37.520;15.068;2022-10-16T14:19:59;26.03;51.52
71839;SHT31;59687;37.520;15.068;2022-10-16T14:22:37;25.89;51.46
71839;SHT31;59687;37.520;15.068;2022-10-16T14:25:28;25.63;53.07
71839;SHT31;59687;37.520;15.068;2022-10-16T14:28:02;25.70;53.22
71839;SHT31;59687;37.520;15.068;2022-10-16T14:30:33;25.76;53.84
71839;SHT31;59687;37.520;15.068;2022-10-16T14:33:24;25.77;53.28
71839;SHT31;59687;37.520;15.068;2022-10-16T14:38:48;26.73;50.07
71839;SHT31;59687;37.520;15.068;2022-10-16T14:41:20;26.64;51.21
71839;SHT31;59687;37.520;15.068;2022-10-16T14:43:55;26.45;50.97
71839;SHT31;59687;37.520;15.068;2022-10-16T14:46:31;26.35;51.67
71839;SHT31;59687;37.520;15.068;2022-10-16T14:51:38;25.80;53.97
71839;SHT31;59687;37.520;15.068;2022-10-16T14:54:09;25.63;54.02
71839;SHT31;59687;37.520;15.068;2022-10-16T14:56:51;25.77;54.43
71839;SHT31;59687;37.520;15.068;2022-10-16T14:59:27;25.41;55.55
71839;SHT31;59687;37.520;15.068;2022-10-16T15:01:54;26.04;53.75
71839;SHT31;59687;37.520;15.068;2022-10-16T15:04:22;26.21;52.85
71839;SHT31;59687;37.520;15.068;2022-10-16T15:06:49;25.53;54.24
71839;SHT31;59687;37.520;15.068;2022-10-16T15:09:16;25.21;55.42
71839;SHT31;59687;37.520;15.068;2022-10-16T15:11:43;24.93;56.48
71839;SHT31;59687;37.520;15.068;2022-10-16T15:14:13;24.59;56.71
71839;SHT31;59687;37.520;15.068;2022-10-16T15:16:45;24.13;57.63
71839;SHT31;59687;37.520;15.068;2022-10-16T15:19:12;23.87;58.86
71839;SHT31;59687;37.520;15.068;2022-10-16T15:21:41;23.63;59.35
71839;SHT31;59687;37.520;15.068;2022-10-16T15:24:11;23.14;60.58
71839;SHT31;59687;37.520;15.068;2022-10-16T15:26:40;22.97;61.39
71839;SHT31;59687;37.520;15.068;2022-10-16T15:29:07;22.59;62.55
71839;SHT31;59687;37.520;15.068;2022-10-16T15:31:35;22.22;63.76
71839;SHT31;59687;37.520;15.068;2022-10-16T15:34:02;22.06;64.66
71839;SHT31;59687;37.520;15.068;2022-10-16T15:36:34;21.93;65.12
71839;SHT31;59687;37.520;15.068;2022-10-16T15:39:04;21.82;65.55
71839;SHT31;59687;37.520;15.068;2022-10-16T15:41:32;21.76;66.15
71839;SHT31;59687;37.520;15.068;2022-10-16T15:44:00;21.75;66.45
71839;SHT31;59687;37.520;15.068;2022-10-16T15:46:27;21.62;67.37
71839;SHT31;59687;37.520;15.068;2022-10-16T15:48:58;21.67;67.32
71839;SHT31;59687;37.520;15.068;2022-10-16T15:51:25;21.72;67.02
71839;SHT31;59687;37.520;15.068;2022-10-16T15:53:56;21.76;66.73
71839;SHT31;59687;37.520;15.068;2022-10-16T15:56:26;21.63;67.36
71839;SHT31;59687;37.520;15.068;2022-10-16T15:58:55;21.49;68.09
71839;SHT31;59687;37.520;15.068;2022-10-16T16:01:23;21.38;68.44
71839;SHT31;59687;37.520;15.068;2022-10-16T16:03:54;21.30;68.98
71839;SHT31;59687;37.520;15.068;2022-10-16T16:06:22;21.20;69.42
71839;SHT31;59687;37.520;15.068;2022-10-16T16:08:52;21.11;69.50
71839;SHT31;59687;37.520;15.068;2022-10-16T16:11:20;21.04;69.80
71839;SHT31;59687;37.520;15.068;2022-10-16T16:13:49;20.93;69.78
71839;SHT31;59687;37.520;15.068;2022-10-16T16:16:17;20.85;70.08
71839;SHT31;59687;37.520;15.068;2022-10-16T16:18:46;20.78;70.20
71839;SHT31;59687;37.520;15.068;2022-10-16T16:21:17;20.72;70.70
71839;SHT31;59687;37.520;15.068;2022-10-16T16:23:44;20.67;70.89
71839;SHT31;59687;37.520;15.068;2022-10-16T16:26:25;20.64;71.08
71839;SHT31;59687;37.520;15.068;2022-10-16T16:29:00;20.59;71.08
71839;SHT31;59687;37.520;15.068;2022-10-16T16:31:29;20.51;71.24
71839;SHT31;59687;37.520;15.068;2022-10-16T16:33:57;20.48;71.14
71839;SHT31;59687;37.520;15.068;2022-10-16T16:36:25;20.44;71.19
71839;SHT31;59687;37.520;15.068;2022-10-16T16:38:53;20.38;71.31
71839;SHT31;59687;37.520;15.068;2022-10-16T16:41:24;20.33;71.44
71839;SHT31;59687;37.520;15.068;2022-10-16T16:43:56;20.26;71.75
71839;SHT31;59687;37.520;15.068;2022-10-16T16:46:27;20.21;71.84
71839;SHT31;59687;37.520;15.068;2022-10-16T16:48:54;20.12;71.80
71839;SHT31;59687;37.520;15.068;2022-10-16T16:51:22;20.13;71.68
71839;SHT31;59687;37.520;15.068;2022-10-16T16:53:51;20.12;71.65
71839;SHT31;59687;37.520;15.068;2022-10-16T16:56:19;20.13;71.57
71839;SHT31;59687;37.520;15.068;2022-10-16T16:58:49;20.05;71.64
71839;SHT31;59687;37.520;15.068;2022-10-16T17:01:16;20.07;71.68
71839;SHT31;59687;37.520;15.068;2022-10-16T17:03:46;20.03;71.85
71839;SHT31;59687;37.520;15.068;2022-10-16T17:06:15;20.01;71.90
71839;SHT31;59687;37.520;15.068;2022-10-16T17:08:45;19.96;72.06
71839;SHT31;59687;37.520;15.068;2022-10-16T17:11:14;19.93;72.27
71839;SHT31;59687;37.520;15.068;2022-10-16T17:13:41;19.86;72.53
71839;SHT31;59687;37.520;15.068;2022-10-16T17:16:09;19.81;72.60
71839;SHT31;59687;37.520;15.068;2022-10-16T17:18:36;19.86;72.19
71839;SHT31;59687;37.520;15.068;2022-10-16T17:21:08;19.85;72.43
71839;SHT31;59687;37.520;15.068;2022-10-16T17:23:36;19.82;72.53
71839;SHT31;59687;37.520;15.068;2022-10-16T17:26:09;19.83;72.45
71839;SHT31;59687;37.520;15.068;2022-10-16T17:28:36;19.86;72.34
71839;SHT31;59687;37.520;15.068;2022-10-16T17:31:12;19.83;72.41
71839;SHT31;59687;37.520;15.068;2022-10-16T17:33:39;19.85;72.61
71839;SHT31;59687;37.520;15.068;2022-10-16T17:36:07;19.83;72.41
71839;SHT31;59687;37.520;15.068;2022-10-16T17:38:34;19.86;72.32
71839;SHT31;59687;37.520;15.068;2022-10-16T17:41:11;19.82;72.39
71839;SHT31;59687;37.520;15.068;2022-10-16T17:43:42;19.78;72.52
71839;SHT31;59687;37.520;15.068;2022-10-16T17:46:11;19.75;72.62
71839;SHT31;59687;37.520;15.068;2022-10-16T17:48:40;19.73;73.01